Manning, Canada
Current Conditions -  °F | °C
As of 12:00 PM on Saturday 25 Oct 2014 (Local Time) from CYPE Reporting Station
Overcast Overcast  
Wind Chill: 24°   Ceiling: 25000
Heat Index: 30°   Visibility: 15mi
Dew Point: 30°   Wind: 6mph
Humidity: 100%   Direction: 30°NNE
Pressure: 29.87"   Gusts: NA
Location:  56.92°N, 117.61°W
Report Text: CYPE 251800Z 03005KT 15SM OVC250 M01/M01 A2987 RMK CI8 SLP144
Loading
Personal Weather Stations






























Interactive Weather Map
Tropical Storm Tracking
New forecast layout! Learn more

10-Day Weather Forecast

Advertisements
Track Severe Weather on mobile